sensor_id;sensor_type;location;lat;lon;timestamp;P1;durP1;ratioP1;P2;durP2;ratioP2
21152;SDS011;10734;44.792;20.482;2023-11-21T00:01:11;92.53;;;44.80;;
21152;SDS011;10734;44.792;20.482;2023-11-21T00:03:38;90.00;;;46.90;;
21152;SDS011;10734;44.792;20.482;2023-11-21T00:06:05;100.88;;;47.45;;
21152;SDS011;10734;44.792;20.482;2023-11-21T00:08:35;86.53;;;45.38;;
21152;SDS011;10734;44.792;20.482;2023-11-21T00:11:02;126.05;;;63.45;;
21152;SDS011;10734;44.792;20.482;2023-11-21T00:13:32;123.95;;;63.15;;
21152;SDS011;10734;44.792;20.482;2023-11-21T00:15:58;119.68;;;59.08;;
21152;SDS011;10734;44.792;20.482;2023-11-21T00:18:25;111.32;;;56.95;;
21152;SDS011;10734;44.792;20.482;2023-11-21T00:20:51;97.70;;;51.58;;
21152;SDS011;10734;44.792;20.482;2023-11-21T00:23:18;93.57;;;48.38;;
21152;SDS011;10734;44.792;20.482;2023-11-21T00:25:45;92.30;;;43.58;;
21152;SDS011;10734;44.792;20.482;2023-11-21T00:28:11;81.40;;;39.33;;
21152;SDS011;10734;44.792;20.482;2023-11-21T00:30:38;77.70;;;37.38;;
21152;SDS011;10734;44.792;20.482;2023-11-21T00:33:04;68.70;;;34.97;;
21152;SDS011;10734;44.792;20.482;2023-11-21T00:35:31;88.18;;;40.28;;
21152;SDS011;10734;44.792;20.482;2023-11-21T00:37:58;80.53;;;38.25;;
21152;SDS011;10734;44.792;20.482;2023-11-21T00:40:24;89.80;;;41.38;;
21152;SDS011;10734;44.792;20.482;2023-11-21T00:42:51;75.43;;;35.30;;
21152;SDS011;10734;44.792;20.482;2023-11-21T00:45:17;72.13;;;33.03;;
21152;SDS011;10734;44.792;20.482;2023-11-21T00:47:44;66.07;;;31.80;;
21152;SDS011;10734;44.792;20.482;2023-11-21T00:50:11;60.72;;;28.83;;
21152;SDS011;10734;44.792;20.482;2023-11-21T00:52:37;49.97;;;25.40;;
21152;SDS011;10734;44.792;20.482;2023-11-21T00:55:04;45.80;;;23.95;;
21152;SDS011;10734;44.792;20.482;2023-11-21T00:57:34;48.28;;;23.30;;
21152;SDS011;10734;44.792;20.482;2023-11-21T01:00:01;42.22;;;20.42;;
21152;SDS011;10734;44.792;20.482;2023-11-21T01:02:27;41.05;;;19.95;;
21152;SDS011;10734;44.792;20.482;2023-11-21T01:04:54;36.58;;;17.80;;
21152;SDS011;10734;44.792;20.482;2023-11-21T01:07:21;33.33;;;16.70;;
21152;SDS011;10734;44.792;20.482;2023-11-21T01:09:49;28.65;;;14.48;;
21152;SDS011;10734;44.792;20.482;2023-11-21T01:12:15;26.73;;;14.15;;
21152;SDS011;10734;44.792;20.482;2023-11-21T01:14:44;29.25;;;14.65;;
21152;SDS011;10734;44.792;20.482;2023-11-21T01:17:11;23.77;;;13.30;;
21152;SDS011;10734;44.792;20.482;2023-11-21T01:19:38;31.40;;;14.40;;
21152;SDS011;10734;44.792;20.482;2023-11-21T01:22:05;29.58;;;14.05;;
21152;SDS011;10734;44.792;20.482;2023-11-21T01:24:31;21.80;;;12.85;;
21152;SDS011;10734;44.792;20.482;2023-11-21T01:26:58;25.55;;;12.80;;
21152;SDS011;10734;44.792;20.482;2023-11-21T01:29:24;25.77;;;13.95;;
21152;SDS011;10734;44.792;20.482;2023-11-21T01:31:51;28.23;;;13.38;;
21152;SDS011;10734;44.792;20.482;2023-11-21T01:34:18;26.35;;;13.75;;
21152;SDS011;10734;44.792;20.482;2023-11-21T01:36:45;25.63;;;13.43;;
21152;SDS011;10734;44.792;20.482;2023-11-21T01:39:11;27.75;;;13.70;;
21152;SDS011;10734;44.792;20.482;2023-11-21T01:41:41;29.13;;;13.90;;
21152;SDS011;10734;44.792;20.482;2023-11-21T01:44:10;26.00;;;13.45;;
21152;SDS011;10734;44.792;20.482;2023-11-21T01:46:37;24.05;;;12.40;;
21152;SDS011;10734;44.792;20.482;2023-11-21T01:49:04;22.85;;;11.98;;
21152;SDS011;10734;44.792;20.482;2023-11-21T01:51:32;24.38;;;10.95;;
21152;SDS011;10734;44.792;20.482;2023-11-21T01:53:59;22.95;;;11.77;;
21152;SDS011;10734;44.792;20.482;2023-11-21T01:56:26;22.38;;;12.45;;
21152;SDS011;10734;44.792;20.482;2023-11-21T01:58:52;23.55;;;13.60;;
21152;SDS011;10734;44.792;20.482;2023-11-21T02:01:20;26.33;;;14.70;;
21152;SDS011;10734;44.792;20.482;2023-11-21T02:03:47;25.33;;;13.68;;
21152;SDS011;10734;44.792;20.482;2023-11-21T02:06:14;24.50;;;13.00;;
21152;SDS011;10734;44.792;20.482;2023-11-21T02:08:40;29.98;;;13.73;;
21152;SDS011;10734;44.792;20.482;2023-11-21T02:11:10;26.02;;;14.18;;
21152;SDS011;10734;44.792;20.482;2023-11-21T02:13:39;25.67;;;13.57;;
21152;SDS011;10734;44.792;20.482;2023-11-21T02:16:10;20.17;;;11.30;;
21152;SDS011;10734;44.792;20.482;2023-11-21T02:18:39;16.42;;;9.73;;
21152;SDS011;10734;44.792;20.482;2023-11-21T02:21:06;18.23;;;10.25;;
21152;SDS011;10734;44.792;20.482;2023-11-21T02:23:32;19.77;;;9.38;;
21152;SDS011;10734;44.792;20.482;2023-11-21T02:25:59;14.27;;;8.73;;
21152;SDS011;10734;44.792;20.482;2023-11-21T02:28:30;17.85;;;9.98;;
21152;SDS011;10734;44.792;20.482;2023-11-21T02:30:57;17.60;;;10.85;;
21152;SDS011;10734;44.792;20.482;2023-11-21T02:33:25;22.88;;;11.85;;
21152;SDS011;10734;44.792;20.482;2023-11-21T02:35:52;26.85;;;13.77;;
21152;SDS011;10734;44.792;20.482;2023-11-21T02:38:21;23.33;;;13.75;;
21152;SDS011;10734;44.792;20.482;2023-11-21T02:40:48;25.00;;;13.27;;
21152;SDS011;10734;44.792;20.482;2023-11-21T02:43:15;38.55;;;19.05;;
21152;SDS011;10734;44.792;20.482;2023-11-21T02:45:42;34.20;;;18.17;;
21152;SDS011;10734;44.792;20.482;2023-11-21T02:48:08;30.33;;;16.65;;
21152;SDS011;10734;44.792;20.482;2023-11-21T02:50:35;31.17;;;17.05;;
21152;SDS011;10734;44.792;20.482;2023-11-21T02:53:02;44.30;;;23.77;;
21152;SDS011;10734;44.792;20.482;2023-11-21T02:55:28;36.22;;;20.33;;
21152;SDS011;10734;44.792;20.482;2023-11-21T02:57:55;40.53;;;21.63;;
21152;SDS011;10734;44.792;20.482;2023-11-21T03:00:23;39.08;;;19.48;;
21152;SDS011;10734;44.792;20.482;2023-11-21T03:02:53;45.90;;;22.83;;
21152;SDS011;10734;44.792;20.482;2023-11-21T03:05:20;45.65;;;23.05;;
21152;SDS011;10734;44.792;20.482;2023-11-21T03:07:47;49.42;;;22.90;;
21152;SDS011;10734;44.792;20.482;2023-11-21T03:10:14;42.90;;;22.55;;
21152;SDS011;10734;44.792;20.482;2023-11-21T03:12:40;40.70;;;22.42;;
21152;SDS011;10734;44.792;20.482;2023-11-21T03:15:07;38.08;;;19.83;;
21152;SDS011;10734;44.792;20.482;2023-11-21T03:17:35;42.35;;;22.05;;
21152;SDS011;10734;44.792;20.482;2023-11-21T03:20:02;43.10;;;22.20;;
21152;SDS011;10734;44.792;20.482;2023-11-21T03:22:30;42.58;;;23.95;;
21152;SDS011;10734;44.792;20.482;2023-11-21T03:24:57;55.35;;;23.65;;
21152;SDS011;10734;44.792;20.482;2023-11-21T03:27:25;41.15;;;21.90;;
21152;SDS011;10734;44.792;20.482;2023-11-21T03:29:51;42.60;;;23.00;;
21152;SDS011;10734;44.792;20.482;2023-11-21T03:32:18;50.45;;;24.38;;
21152;SDS011;10734;44.792;20.482;2023-11-21T03:34:54;43.95;;;23.90;;
21152;SDS011;10734;44.792;20.482;2023-11-21T03:37:25;42.63;;;20.92;;
21152;SDS011;10734;44.792;20.482;2023-11-21T03:39:55;40.22;;;21.40;;
21152;SDS011;10734;44.792;20.482;2023-11-21T03:42:21;41.63;;;21.10;;
21152;SDS011;10734;44.792;20.482;2023-11-21T03:44:48;40.55;;;20.63;;
21152;SDS011;10734;44.792;20.482;2023-11-21T03:47:15;38.45;;;20.20;;
21152;SDS011;10734;44.792;20.482;2023-11-21T03:49:42;43.13;;;21.20;;
21152;SDS011;10734;44.792;20.482;2023-11-21T03:52:09;35.13;;;19.90;;
21152;SDS011;10734;44.792;20.482;2023-11-21T03:54:36;39.85;;;20.63;;
21152;SDS011;10734;44.792;20.482;2023-11-21T03:57:03;37.30;;;19.70;;
21152;SDS011;10734;44.792;20.482;2023-11-21T03:59:30;37.63;;;21.00;;
21152;SDS011;10734;44.792;20.482;2023-11-21T04:01:57;32.67;;;18.30;;
21152;SDS011;10734;44.792;20.482;2023-11-21T04:04:27;40.47;;;19.90;;
21152;SDS011;10734;44.792;20.482;2023-11-21T04:06:55;35.38;;;18.35;;
21152;SDS011;10734;44.792;20.482;2023-11-21T04:09:23;42.85;;;20.65;;
21152;SDS011;10734;44.792;20.482;2023-11-21T04:11:52;48.17;;;24.98;;
21152;SDS011;10734;44.792;20.482;2023-11-21T04:14:20;38.78;;;20.35;;
21152;SDS011;10734;44.792;20.482;2023-11-21T04:16:47;39.08;;;17.10;;
21152;SDS011;10734;44.792;20.482;2023-11-21T04:19:16;31.80;;;16.38;;
21152;SDS011;10734;44.792;20.482;2023-11-21T04:21:44;33.88;;;16.52;;
21152;SDS011;10734;44.792;20.482;2023-11-21T04:24:12;31.55;;;17.08;;
21152;SDS011;10734;44.792;20.482;2023-11-21T04:26:44;33.03;;;17.13;;
21152;SDS011;10734;44.792;20.482;2023-11-21T04:29:12;33.92;;;17.80;;
21152;SDS011;10734;44.792;20.482;2023-11-21T04:31:39;45.80;;;20.00;;
21152;SDS011;10734;44.792;20.482;2023-11-21T04:34:07;32.38;;;18.00;;
21152;SDS011;10734;44.792;20.482;2023-11-21T04:36:35;33.65;;;19.15;;
21152;SDS011;10734;44.792;20.482;2023-11-21T04:39:03;37.70;;;19.42;;
21152;SDS011;10734;44.792;20.482;2023-11-21T04:41:30;42.22;;;22.58;;
21152;SDS011;10734;44.792;20.482;2023-11-21T04:44:00;42.97;;;24.65;;
21152;SDS011;10734;44.792;20.482;2023-11-21T04:46:31;43.88;;;23.15;;
21152;SDS011;10734;44.792;20.482;2023-11-21T04:48:58;45.05;;;23.00;;
21152;SDS011;10734;44.792;20.482;2023-11-21T04:51:26;44.42;;;22.75;;
21152;SDS011;10734;44.792;20.482;2023-11-21T04:53:54;44.72;;;22.95;;
21152;SDS011;10734;44.792;20.482;2023-11-21T04:56:22;44.17;;;21.70;;
21152;SDS011;10734;44.792;20.482;2023-11-21T04:58:56;44.88;;;21.65;;
21152;SDS011;10734;44.792;20.482;2023-11-21T05:01:24;47.67;;;23.75;;
21152;SDS011;10734;44.792;20.482;2023-11-21T05:03:52;41.40;;;23.17;;
21152;SDS011;10734;44.792;20.482;2023-11-21T05:06:20;48.13;;;22.98;;
21152;SDS011;10734;44.792;20.482;2023-11-21T05:08:48;43.33;;;23.73;;
21152;SDS011;10734;44.792;20.482;2023-11-21T05:11:28;48.28;;;25.38;;
21152;SDS011;10734;44.792;20.482;2023-11-21T05:13:56;47.67;;;24.98;;
21152;SDS011;10734;44.792;20.482;2023-11-21T05:16:26;46.00;;;25.75;;
21152;SDS011;10734;44.792;20.482;2023-11-21T05:18:54;39.97;;;23.90;;
21152;SDS011;10734;44.792;20.482;2023-11-21T05:21:27;46.05;;;23.83;;
21152;SDS011;10734;44.792;20.482;2023-11-21T05:23:55;41.80;;;22.73;;
21152;SDS011;10734;44.792;20.482;2023-11-21T05:26:23;40.00;;;21.63;;
21152;SDS011;10734;44.792;20.482;2023-11-21T05:28:51;34.50;;;21.00;;
21152;SDS011;10734;44.792;20.482;2023-11-21T05:31:19;40.33;;;21.75;;
21152;SDS011;10734;44.792;20.482;2023-11-21T05:33:47;38.67;;;20.83;;
21152;SDS011;10734;44.792;20.482;2023-11-21T05:36:14;40.22;;;21.30;;
21152;SDS011;10734;44.792;20.482;2023-11-21T05:38:40;42.38;;;23.02;;
21152;SDS011;10734;44.792;20.482;2023-11-21T05:41:09;36.58;;;21.17;;
21152;SDS011;10734;44.792;20.482;2023-11-21T05:43:39;43.85;;;22.70;;
21152;SDS011;10734;44.792;20.482;2023-11-21T05:46:06;41.85;;;21.98;;
21152;SDS011;10734;44.792;20.482;2023-11-21T05:48:35;39.75;;;21.55;;
21152;SDS011;10734;44.792;20.482;2023-11-21T05:51:06;36.67;;;19.60;;
21152;SDS011;10734;44.792;20.482;2023-11-21T05:53:34;37.13;;;20.25;;
21152;SDS011;10734;44.792;20.482;2023-11-21T05:56:00;31.65;;;17.50;;
21152;SDS011;10734;44.792;20.482;2023-11-21T05:58:28;30.00;;;18.17;;
21152;SDS011;10734;44.792;20.482;2023-11-21T06:00:56;33.22;;;17.60;;
21152;SDS011;10734;44.792;20.482;2023-11-21T06:03:25;29.73;;;16.88;;
21152;SDS011;10734;44.792;20.482;2023-11-21T06:05:53;29.30;;;16.35;;
21152;SDS011;10734;44.792;20.482;2023-11-21T06:08:21;29.40;;;18.33;;
21152;SDS011;10734;44.792;20.482;2023-11-21T06:10:49;32.55;;;15.38;;
21152;SDS011;10734;44.792;20.482;2023-11-21T06:13:17;29.33;;;15.23;;
21152;SDS011;10734;44.792;20.482;2023-11-21T06:15:48;35.80;;;16.48;;
21152;SDS011;10734;44.792;20.482;2023-11-21T06:18:18;25.75;;;14.95;;
21152;SDS011;10734;44.792;20.482;2023-11-21T06:20:52;32.92;;;16.35;;
21152;SDS011;10734;44.792;20.482;2023-11-21T06:23:20;24.35;;;14.18;;
21152;SDS011;10734;44.792;20.482;2023-11-21T06:25:48;34.72;;;15.82;;
21152;SDS011;10734;44.792;20.482;2023-11-21T06:28:16;27.38;;;15.90;;
21152;SDS011;10734;44.792;20.482;2023-11-21T06:30:49;35.38;;;18.60;;
21152;SDS011;10734;44.792;20.482;2023-11-21T06:33:18;37.60;;;20.83;;
21152;SDS011;10734;44.792;20.482;2023-11-21T06:35:46;46.10;;;23.17;;
21152;SDS011;10734;44.792;20.482;2023-11-21T06:38:14;44.28;;;22.98;;
21152;SDS011;10734;44.792;20.482;2023-11-21T06:40:42;46.90;;;23.95;;
21152;SDS011;10734;44.792;20.482;2023-11-21T06:43:09;46.42;;;25.48;;
21152;SDS011;10734;44.792;20.482;2023-11-21T06:45:37;54.78;;;27.45;;
21152;SDS011;10734;44.792;20.482;2023-11-21T06:48:06;54.20;;;28.67;;
21152;SDS011;10734;44.792;20.482;2023-11-21T06:50:36;54.55;;;28.80;;
21152;SDS011;10734;44.792;20.482;2023-11-21T06:53:04;55.65;;;30.23;;
21152;SDS011;10734;44.792;20.482;2023-11-21T06:55:34;64.38;;;33.85;;
21152;SDS011;10734;44.792;20.482;2023-11-21T06:58:01;64.75;;;35.05;;
21152;SDS011;10734;44.792;20.482;2023-11-21T07:00:29;61.78;;;33.33;;
21152;SDS011;10734;44.792;20.482;2023-11-21T07:02:57;60.63;;;33.15;;
21152;SDS011;10734;44.792;20.482;2023-11-21T07:05:25;51.20;;;30.50;;
21152;SDS011;10734;44.792;20.482;2023-11-21T07:07:52;55.15;;;30.60;;
21152;SDS011;10734;44.792;20.482;2023-11-21T07:10:21;56.45;;;31.10;;
21152;SDS011;10734;44.792;20.482;2023-11-21T07:12:49;55.78;;;27.30;;
21152;SDS011;10734;44.792;20.482;2023-11-21T07:15:17;46.30;;;25.30;;
21152;SDS011;10734;44.792;20.482;2023-11-21T07:17:46;50.63;;;26.30;;
21152;SDS011;10734;44.792;20.482;2023-11-21T07:20:13;45.50;;;26.08;;
21152;SDS011;10734;44.792;20.482;2023-11-21T07:22:40;48.22;;;25.85;;
21152;SDS011;10734;44.792;20.482;2023-11-21T07:25:07;45.40;;;25.35;;
21152;SDS011;10734;44.792;20.482;2023-11-21T07:27:36;46.72;;;25.50;;
21152;SDS011;10734;44.792;20.482;2023-11-21T07:30:03;47.20;;;26.55;;
21152;SDS011;10734;44.792;20.482;2023-11-21T07:32:31;46.97;;;27.35;;
21152;SDS011;10734;44.792;20.482;2023-11-21T07:34:58;48.65;;;25.65;;
21152;SDS011;10734;44.792;20.482;2023-11-21T07:37:26;42.83;;;25.05;;
21152;SDS011;10734;44.792;20.482;2023-11-21T07:39:55;44.28;;;25.42;;
21152;SDS011;10734;44.792;20.482;2023-11-21T07:42:23;44.75;;;25.02;;
21152;SDS011;10734;44.792;20.482;2023-11-21T07:44:50;45.10;;;26.33;;
21152;SDS011;10734;44.792;20.482;2023-11-21T07:47:17;42.08;;;23.75;;
21152;SDS011;10734;44.792;20.482;2023-11-21T07:49:44;36.58;;;22.65;;
21152;SDS011;10734;44.792;20.482;2023-11-21T07:52:11;36.03;;;21.80;;
21152;SDS011;10734;44.792;20.482;2023-11-21T07:54:37;39.35;;;22.98;;
21152;SDS011;10734;44.792;20.482;2023-11-21T07:57:04;37.72;;;21.85;;
21152;SDS011;10734;44.792;20.482;2023-11-21T07:59:31;37.42;;;22.13;;
21152;SDS011;10734;44.792;20.482;2023-11-21T08:01:57;41.55;;;22.75;;
21152;SDS011;10734;44.792;20.482;2023-11-21T08:04:24;40.67;;;23.20;;
21152;SDS011;10734;44.792;20.482;2023-11-21T08:06:50;38.45;;;22.95;;
21152;SDS011;10734;44.792;20.482;2023-11-21T08:09:17;38.80;;;22.92;;
21152;SDS011;10734;44.792;20.482;2023-11-21T08:11:43;36.25;;;20.60;;
21152;SDS011;10734;44.792;20.482;2023-11-21T08:14:10;34.45;;;19.63;;
21152;SDS011;10734;44.792;20.482;2023-11-21T08:16:37;33.17;;;19.48;;
21152;SDS011;10734;44.792;20.482;2023-11-21T08:19:04;34.25;;;18.75;;
21152;SDS011;10734;44.792;20.482;2023-11-21T08:21:32;30.15;;;17.25;;
21152;SDS011;10734;44.792;20.482;2023-11-21T08:23:58;29.50;;;16.75;;
21152;SDS011;10734;44.792;20.482;2023-11-21T08:26:26;30.65;;;17.23;;
21152;SDS011;10734;44.792;20.482;2023-11-21T08:28:52;29.23;;;16.27;;
21152;SDS011;10734;44.792;20.482;2023-11-21T08:31:28;36.50;;;18.02;;
21152;SDS011;10734;44.792;20.482;2023-11-21T08:33:55;27.55;;;16.15;;
21152;SDS011;10734;44.792;20.482;2023-11-21T08:36:22;25.90;;;16.30;;
21152;SDS011;10734;44.792;20.482;2023-11-21T08:38:51;28.60;;;17.02;;
21152;SDS011;10734;44.792;20.482;2023-11-21T08:41:18;31.73;;;16.55;;
21152;SDS011;10734;44.792;20.482;2023-11-21T08:43:48;27.40;;;16.17;;
21152;SDS011;10734;44.792;20.482;2023-11-21T08:46:15;30.05;;;17.08;;
21152;SDS011;10734;44.792;20.482;2023-11-21T08:48:44;31.20;;;17.65;;
21152;SDS011;10734;44.792;20.482;2023-11-21T08:51:11;30.35;;;15.60;;
21152;SDS011;10734;44.792;20.482;2023-11-21T08:53:40;25.95;;;15.85;;
21152;SDS011;10734;44.792;20.482;2023-11-21T08:56:07;28.02;;;16.20;;
21152;SDS011;10734;44.792;20.482;2023-11-21T08:58:35;28.25;;;15.80;;
21152;SDS011;10734;44.792;20.482;2023-11-21T09:01:04;28.08;;;14.80;;
21152;SDS011;10734;44.792;20.482;2023-11-21T09:03:30;26.25;;;15.43;;
21152;SDS011;10734;44.792;20.482;2023-11-21T09:05:58;28.23;;;15.43;;
21152;SDS011;10734;44.792;20.482;2023-11-21T09:08:25;30.27;;;16.67;;
21152;SDS011;10734;44.792;20.482;2023-11-21T09:10:54;26.23;;;16.30;;
21152;SDS011;10734;44.792;20.482;2023-11-21T09:13:21;28.48;;;16.98;;
21152;SDS011;10734;44.792;20.482;2023-11-21T09:15:50;27.77;;;16.75;;
21152;SDS011;10734;44.792;20.482;2023-11-21T09:18:16;28.08;;;16.55;;
21152;SDS011;10734;44.792;20.482;2023-11-21T09:20:43;29.45;;;17.30;;
21152;SDS011;10734;44.792;20.482;2023-11-21T09:23:12;34.22;;;18.20;;
21152;SDS011;10734;44.792;20.482;2023-11-21T09:25:39;34.05;;;19.13;;
21152;SDS011;10734;44.792;20.482;2023-11-21T09:28:05;26.05;;;16.23;;
21152;SDS011;10734;44.792;20.482;2023-11-21T09:30:35;31.33;;;17.73;;
21152;SDS011;10734;44.792;20.482;2023-11-21T09:33:03;28.75;;;17.30;;
21152;SDS011;10734;44.792;20.482;2023-11-21T09:35:34;31.77;;;16.75;;
21152;SDS011;10734;44.792;20.482;2023-11-21T09:38:01;30.00;;;16.98;;
21152;SDS011;10734;44.792;20.482;2023-11-21T09:40:32;29.47;;;18.00;;
21152;SDS011;10734;44.792;20.482;2023-11-21T09:42:58;29.92;;;17.65;;
21152;SDS011;10734;44.792;20.482;2023-11-21T09:45:27;29.38;;;16.55;;
21152;SDS011;10734;44.792;20.482;2023-11-21T09:47:55;33.40;;;18.15;;
21152;SDS011;10734;44.792;20.482;2023-11-21T09:50:22;30.95;;;17.75;;
21152;SDS011;10734;44.792;20.482;2023-11-21T09:55:36;29.35;;;18.63;;
21152;SDS011;10734;44.792;20.482;2023-11-21T09:58:05;29.45;;;17.52;;
21152;SDS011;10734;44.792;20.482;2023-11-21T10:00:34;31.40;;;17.25;;
21152;SDS011;10734;44.792;20.482;2023-11-21T10:03:01;31.50;;;17.40;;
21152;SDS011;10734;44.792;20.482;2023-11-21T10:05:29;44.58;;;18.52;;
21152;SDS011;10734;44.792;20.482;2023-11-21T10:07:56;33.63;;;16.33;;
21152;SDS011;10734;44.792;20.482;2023-11-21T10:10:24;27.65;;;16.33;;
21152;SDS011;10734;44.792;20.482;2023-11-21T10:12:53;25.05;;;15.73;;
21152;SDS011;10734;44.792;20.482;2023-11-21T10:15:22;33.90;;;16.52;;
21152;SDS011;10734;44.792;20.482;2023-11-21T10:17:49;30.05;;;17.10;;
21152;SDS011;10734;44.792;20.482;2023-11-21T10:20:16;27.65;;;16.23;;
21152;SDS011;10734;44.792;20.482;2023-11-21T10:22:43;33.58;;;18.08;;
21152;SDS011;10734;44.792;20.482;2023-11-21T10:25:10;35.80;;;18.23;;
21152;SDS011;10734;44.792;20.482;2023-11-21T10:27:36;33.10;;;18.55;;
21152;SDS011;10734;44.792;20.482;2023-11-21T10:30:07;29.48;;;17.17;;
21152;SDS011;10734;44.792;20.482;2023-11-21T10:32:34;26.35;;;17.02;;
21152;SDS011;10734;44.792;20.482;2023-11-21T10:35:01;29.83;;;17.33;;
21152;SDS011;10734;44.792;20.482;2023-11-21T10:37:32;34.40;;;17.80;;
21152;SDS011;10734;44.792;20.482;2023-11-21T10:39:59;28.58;;;17.15;;
21152;SDS011;10734;44.792;20.482;2023-11-21T10:42:25;32.55;;;17.48;;
21152;SDS011;10734;44.792;20.482;2023-11-21T10:44:54;31.98;;;17.73;;
21152;SDS011;10734;44.792;20.482;2023-11-21T10:47:21;30.92;;;17.05;;
21152;SDS011;10734;44.792;20.482;2023-11-21T10:49:49;30.85;;;16.98;;
21152;SDS011;10734;44.792;20.482;2023-11-21T10:52:15;27.27;;;15.18;;
21152;SDS011;10734;44.792;20.482;2023-11-21T10:54:45;30.98;;;16.30;;
21152;SDS011;10734;44.792;20.482;2023-11-21T10:57:12;29.90;;;17.02;;
21152;SDS011;10734;44.792;20.482;2023-11-21T10:59:41;29.38;;;16.42;;
21152;SDS011;10734;44.792;20.482;2023-11-21T11:02:24;30.52;;;15.07;;
21152;SDS011;10734;44.792;20.482;2023-11-21T11:04:55;25.95;;;15.52;;
21152;SDS011;10734;44.792;20.482;2023-11-21T11:07:26;28.17;;;16.55;;
21152;SDS011;10734;44.792;20.482;2023-11-21T11:09:53;26.40;;;15.85;;
21152;SDS011;10734;44.792;20.482;2023-11-21T11:12:20;31.65;;;16.92;;
21152;SDS011;10734;44.792;20.482;2023-11-21T11:14:49;31.83;;;18.58;;
21152;SDS011;10734;44.792;20.482;2023-11-21T11:17:15;38.17;;;20.58;;
21152;SDS011;10734;44.792;20.482;2023-11-21T11:19:42;49.88;;;22.92;;
21152;SDS011;10734;44.792;20.482;2023-11-21T11:22:29;35.92;;;20.10;;
21152;SDS011;10734;44.792;20.482;2023-11-21T11:38:08;50.35;;;26.83;;
21152;SDS011;10734;44.792;20.482;2023-11-21T11:40:38;43.88;;;26.38;;
21152;SDS011;10734;44.792;20.482;2023-11-21T11:43:06;47.10;;;25.17;;
21152;SDS011;10734;44.792;20.482;2023-11-21T11:45:34;48.40;;;27.90;;
21152;SDS011;10734;44.792;20.482;2023-11-21T11:48:02;45.83;;;27.08;;
21152;SDS011;10734;44.792;20.482;2023-11-21T11:50:29;46.80;;;27.77;;
21152;SDS011;10734;44.792;20.482;2023-11-21T11:53:11;48.78;;;28.00;;
21152;SDS011;10734;44.792;20.482;2023-11-21T11:55:38;50.20;;;30.25;;
21152;SDS011;10734;44.792;20.482;2023-11-21T11:58:05;302.60;;;115.78;;
21152;SDS011;10734;44.792;20.482;2023-11-21T12:03:00;90.63;;;41.65;;
21152;SDS011;10734;44.792;20.482;2023-11-21T12:05:30;66.75;;;35.47;;
21152;SDS011;10734;44.792;20.482;2023-11-21T12:08:08;58.53;;;31.75;;
21152;SDS011;10734;44.792;20.482;2023-11-21T12:10:36;51.03;;;29.52;;
21152;SDS011;10734;44.792;20.482;2023-11-21T12:13:05;55.22;;;30.50;;
21152;SDS011;10734;44.792;20.482;2023-11-21T12:15:33;38.13;;;21.85;;
21152;SDS011;10734;44.792;20.482;2023-11-21T12:18:01;51.45;;;28.48;;
21152;SDS011;10734;44.792;20.482;2023-11-21T12:20:28;43.88;;;25.95;;
21152;SDS011;10734;44.792;20.482;2023-11-21T12:22:56;63.70;;;33.20;;
21152;SDS011;10734;44.792;20.482;2023-11-21T12:25:24;55.60;;;31.85;;
21152;SDS011;10734;44.792;20.482;2023-11-21T12:27:51;54.15;;;31.35;;
21152;SDS011;10734;44.792;20.482;2023-11-21T12:30:23;59.35;;;32.38;;
21152;SDS011;10734;44.792;20.482;2023-11-21T12:32:53;52.72;;;30.08;;
21152;SDS011;10734;44.792;20.482;2023-11-21T12:35:23;56.55;;;31.23;;
21152;SDS011;10734;44.792;20.482;2023-11-21T12:37:50;58.38;;;31.40;;
21152;SDS011;10734;44.792;20.482;2023-11-21T12:40:18;55.45;;;31.50;;
21152;SDS011;10734;44.792;20.482;2023-11-21T12:42:47;52.65;;;30.30;;
21152;SDS011;10734;44.792;20.482;2023-11-21T12:45:22;60.35;;;32.72;;
21152;SDS011;10734;44.792;20.482;2023-11-21T12:47:50;60.38;;;34.85;;
21152;SDS011;10734;44.792;20.482;2023-11-21T12:50:24;61.58;;;35.97;;
21152;SDS011;10734;44.792;20.482;2023-11-21T12:52:59;68.85;;;38.80;;
21152;SDS011;10734;44.792;20.482;2023-11-21T12:55:29;93.20;;;49.73;;
21152;SDS011;10734;44.792;20.482;2023-11-21T12:57:56;89.60;;;47.42;;
21152;SDS011;10734;44.792;20.482;2023-11-21T13:00:34;82.00;;;46.20;;
21152;SDS011;10734;44.792;20.482;2023-11-21T13:03:05;75.00;;;41.17;;
21152;SDS011;10734;44.792;20.482;2023-11-21T13:05:33;70.90;;;36.65;;
21152;SDS011;10734;44.792;20.482;2023-11-21T13:08:01;64.40;;;38.83;;
21152;SDS011;10734;44.792;20.482;2023-11-21T13:10:30;62.72;;;34.95;;
21152;SDS011;10734;44.792;20.482;2023-11-21T13:12:58;63.85;;;34.45;;
21152;SDS011;10734;44.792;20.482;2023-11-21T13:15:25;59.85;;;35.05;;
21152;SDS011;10734;44.792;20.482;2023-11-21T13:17:53;63.47;;;35.60;;
21152;SDS011;10734;44.792;20.482;2023-11-21T13:20:20;67.32;;;34.45;;
21152;SDS011;10734;44.792;20.482;2023-11-21T13:22:48;66.25;;;35.17;;
21152;SDS011;10734;44.792;20.482;2023-11-21T13:25:16;56.03;;;35.13;;
21152;SDS011;10734;44.792;20.482;2023-11-21T13:27:44;60.28;;;35.90;;
21152;SDS011;10734;44.792;20.482;2023-11-21T13:30:13;61.25;;;34.72;;
21152;SDS011;10734;44.792;20.482;2023-11-21T13:32:42;61.95;;;36.80;;
21152;SDS011;10734;44.792;20.482;2023-11-21T13:35:09;55.75;;;33.78;;
21152;SDS011;10734;44.792;20.482;2023-11-21T13:37:41;64.82;;;34.45;;
21152;SDS011;10734;44.792;20.482;2023-11-21T13:40:08;64.65;;;38.28;;
21152;SDS011;10734;44.792;20.482;2023-11-21T13:42:41;74.63;;;41.67;;
21152;SDS011;10734;44.792;20.482;2023-11-21T13:45:08;81.22;;;45.97;;
21152;SDS011;10734;44.792;20.482;2023-11-21T13:47:35;70.50;;;42.45;;
21152;SDS011;10734;44.792;20.482;2023-11-21T13:50:04;66.03;;;39.22;;
21152;SDS011;10734;44.792;20.482;2023-11-21T13:52:40;69.68;;;38.92;;
21152;SDS011;10734;44.792;20.482;2023-11-21T13:55:06;78.18;;;42.78;;
21152;SDS011;10734;44.792;20.482;2023-11-21T13:57:40;94.10;;;50.75;;
21152;SDS011;10734;44.792;20.482;2023-11-21T14:00:09;83.38;;;46.15;;
21152;SDS011;10734;44.792;20.482;2023-11-21T14:02:56;73.57;;;41.50;;
21152;SDS011;10734;44.792;20.482;2023-11-21T14:05:27;66.13;;;40.70;;
21152;SDS011;10734;44.792;20.482;2023-11-21T14:07:55;68.22;;;39.70;;
21152;SDS011;10734;44.792;20.482;2023-11-21T14:10:31;81.03;;;46.28;;
21152;SDS011;10734;44.792;20.482;2023-11-21T14:13:09;72.83;;;40.70;;
21152;SDS011;10734;44.792;20.482;2023-11-21T14:15:39;76.95;;;44.85;;
21152;SDS011;10734;44.792;20.482;2023-11-21T14:18:11;71.78;;;43.33;;
21152;SDS011;10734;44.792;20.482;2023-11-21T14:20:40;65.47;;;41.20;;
21152;SDS011;10734;44.792;20.482;2023-11-21T14:23:08;63.33;;;37.03;;
21152;SDS011;10734;44.792;20.482;2023-11-21T14:25:34;64.25;;;38.05;;
21152;SDS011;10734;44.792;20.482;2023-11-21T14:28:03;62.50;;;37.83;;
21152;SDS011;10734;44.792;20.482;2023-11-21T14:30:32;68.40;;;40.97;;
21152;SDS011;10734;44.792;20.482;2023-11-21T14:33:01;78.65;;;44.22;;